createdAt,value
2023-04-17T00:00:33.090Z,100257.07
2023-04-17T00:01:33.071Z,100251.96
2023-04-17T00:02:33.215Z,100253.42
2023-04-17T00:03:33.302Z,100256.76
2023-04-17T00:04:33.231Z,100252.67
2023-04-17T00:05:33.114Z,100254.62
2023-04-17T00:06:33.136Z,100250.77
2023-04-17T00:07:33.201Z,100255.49
2023-04-17T00:08:33.212Z,100253.08
2023-04-17T00:09:33.250Z,100253.72
2023-04-17T00:10:33.227Z,100250.17
2023-04-17T00:11:33.236Z,100253.91
2023-04-17T00:12:33.338Z,100252.2
2023-04-17T00:13:33.249Z,100253.81
2023-04-17T00:14:33.290Z,100255.34
2023-04-17T00:15:33.304Z,100251.76
2023-04-17T00:16:33.379Z,100256.89
2023-04-17T00:17:33.377Z,100256.56
2023-04-17T00:18:33.374Z,100253.98
2023-04-17T00:19:33.347Z,100256.63
2023-04-17T00:20:33.367Z,100256.11
2023-04-17T00:21:33.402Z,100255
2023-04-17T00:22:33.554Z,100256.5
2023-04-17T00:23:33.406Z,100255.92
2023-04-17T00:24:33.445Z,100256.83
2023-04-17T00:25:33.463Z,100251.52
2023-04-17T00:26:33.459Z,100252.73
2023-04-17T00:27:33.476Z,100255.88
2023-04-17T00:28:33.632Z,100255.48
2023-04-17T00:29:33.505Z,100261.99
2023-04-17T00:30:33.542Z,100258.81
2023-04-17T00:31:33.571Z,100256.66
2023-04-17T00:32:33.592Z,100257.96
2023-04-17T00:33:34.304Z,100256.68
2023-04-17T00:34:33.714Z,100257.72
2023-04-17T00:35:33.634Z,100258.43
2023-04-17T00:36:33.657Z,100255.83
2023-04-17T00:37:33.636Z,100260.67
2023-04-17T00:38:33.671Z,100259.22
2023-04-17T00:39:33.723Z,100252.38
2023-04-17T00:40:33.703Z,100248.66
2023-04-17T00:41:33.724Z,100248.06
2023-04-17T00:42:33.749Z,100248.67
2023-04-17T00:43:33.753Z,100247.26
2023-04-17T00:44:33.835Z,100251.67
2023-04-17T00:45:34.415Z,100245.89
2023-04-17T00:46:33.825Z,100246.77
2023-04-17T00:47:33.863Z,100248.28
2023-04-17T00:48:34.690Z,100246.84
2023-04-17T00:49:33.861Z,100246
2023-04-17T00:50:34.615Z,100244.83
2023-04-17T00:51:34.016Z,100245.99
2023-04-17T00:52:34.130Z,100248.05
2023-04-17T00:53:33.930Z,100247.83
2023-04-17T00:54:35.123Z,100248.48
2023-04-17T00:55:35.265Z,100248.4
2023-04-17T00:56:34.051Z,100249.36
2023-04-17T00:57:34.271Z,100249.39
2023-04-17T00:58:35.760Z,100249.62
2023-04-17T00:59:35.567Z,100253.17
2023-04-17T01:00:34.441Z,100248.14
2023-04-17T01:01:34.087Z,100252.52
2023-04-17T01:02:34.170Z,100251.14
2023-04-17T01:03:34.830Z,100251.38
2023-04-17T01:04:34.185Z,100252.27
2023-04-17T01:05:35.805Z,100250.95
2023-04-17T01:06:34.127Z,100250.2
2023-04-17T01:07:34.252Z,100249.67
2023-04-17T01:09:36.743Z,100247.72
2023-04-17T01:10:36.364Z,100249.33
2023-04-17T01:11:36.131Z,100248.09
2023-04-17T01:12:36.181Z,100247.23
2023-04-17T01:14:36.917Z,100244.8
2023-04-17T01:15:36.989Z,100248.89
2023-04-17T01:16:37.026Z,100247.62
2023-04-17T01:17:37.056Z,100249.12
2023-04-17T01:18:36.994Z,100249.57
2023-04-17T01:19:37.014Z,100246.38
2023-04-17T01:20:37.116Z,100248.69
2023-04-17T01:21:37.044Z,100255.55
2023-04-17T01:22:37.228Z,100253.64
2023-04-17T01:23:43.956Z,100251.01
2023-04-17T01:24:40.164Z,100252.72
2023-04-17T01:25:40.232Z,100251.87
2023-04-17T01:26:40.456Z,100251.8
2023-04-17T01:27:40.242Z,100253.59
2023-04-17T01:28:40.220Z,100252.42
2023-04-17T01:29:40.633Z,100253.55
2023-04-17T01:30:40.469Z,100253.31
2023-04-17T01:31:40.292Z,100256.3
2023-04-17T01:32:40.412Z,100253.76
2023-04-17T01:33:40.347Z,100255.66
2023-04-17T01:34:40.344Z,100256.84
2023-04-17T01:35:40.370Z,100257.03
2023-04-17T01:36:40.391Z,100255.46
2023-04-17T01:37:40.404Z,100255.28
2023-04-17T01:38:40.427Z,100257.09
2023-04-17T01:39:40.439Z,100254.91
2023-04-17T01:40:40.486Z,100252.17
2023-04-17T01:41:40.456Z,100253.73
2023-04-17T01:42:40.490Z,100251.41
2023-04-17T01:43:41.838Z,100251.16
2023-04-17T01:44:40.498Z,100250.55
2023-04-17T01:45:40.529Z,100252.11
2023-04-17T01:46:40.602Z,100253.5
2023-04-17T01:47:40.591Z,100255.25
2023-04-17T01:48:40.620Z,100252
2023-04-17T01:49:40.576Z,100254.74
2023-04-17T01:50:40.580Z,100253.4
2023-04-17T01:51:40.634Z,100254.47
2023-04-17T01:52:40.624Z,100254.2
2023-04-17T01:53:40.794Z,100251.02
2023-04-17T01:54:40.685Z,100251.69
2023-04-17T01:55:40.694Z,100249.5
2023-04-17T01:56:40.867Z,100253.83
2023-04-17T01:57:40.723Z,100253.47
2023-04-17T01:58:40.734Z,100254.43
2023-04-17T01:59:40.749Z,100251.94
2023-04-17T02:00:40.724Z,100257.25
2023-04-17T02:01:40.866Z,100256.27
2023-04-17T02:02:40.890Z,100250.66
2023-04-17T02:03:40.984Z,100255.27
2023-04-17T02:04:40.983Z,100256.2
2023-04-17T02:05:40.863Z,100251.85
2023-04-17T02:06:40.941Z,100252.04
2023-04-17T02:07:40.845Z,100252.93
2023-04-17T02:08:40.901Z,100258.42
2023-04-17T02:09:40.895Z,100254.84
2023-04-17T02:10:41.625Z,100254.09
2023-04-17T02:11:41.043Z,100253.52
2023-04-17T02:12:40.945Z,100252.07
2023-04-17T02:13:40.967Z,100253.16
2023-04-17T02:14:40.986Z,100251.79
2023-04-17T02:15:41.276Z,100251.68
2023-04-17T02:16:41.042Z,100253.48
2023-04-17T02:17:41.069Z,100250.31
2023-04-17T02:18:41.051Z,100254.39
2023-04-17T02:19:41.090Z,100251.3
2023-04-17T02:20:41.147Z,100254.27
2023-04-17T02:21:41.303Z,100251.5
2023-04-17T02:22:41.327Z,100255.25
2023-04-17T02:23:41.159Z,100252.33
2023-04-17T02:24:41.192Z,100254.2
2023-04-17T02:25:41.680Z,100254.27
2023-04-17T02:26:41.849Z,100253.56
2023-04-17T02:27:41.717Z,100253.72
2023-04-17T02:28:44.658Z,100253.95
2023-04-17T02:29:41.741Z,100254.33
2023-04-17T02:30:41.733Z,100253.78
2023-04-17T02:31:41.980Z,100254
2023-04-17T02:32:41.801Z,100252.13
2023-04-17T02:33:41.814Z,100259.08
2023-04-17T02:34:41.782Z,100255.64
2023-04-17T02:35:41.839Z,100259.09
2023-04-17T02:36:41.988Z,100264.92
2023-04-17T02:37:41.834Z,100260.81
2023-04-17T02:38:41.886Z,100259.37
2023-04-17T02:39:41.880Z,100262.62
2023-04-17T02:40:41.918Z,100264.92
2023-04-17T02:41:41.943Z,100263.89
2023-04-17T02:42:41.974Z,100259.57
2023-04-17T02:43:41.972Z,100262.09
2023-04-17T02:44:41.979Z,100262.35
2023-04-17T02:45:41.978Z,100259.5
2023-04-17T02:46:42.065Z,100265.33
2023-04-17T02:47:42.808Z,100265.5
2023-04-17T02:48:42.056Z,100264.12
2023-04-17T02:49:42.035Z,100265.81
2023-04-17T02:50:42.050Z,100267.44
2023-04-17T02:51:42.090Z,100265.89
2023-04-17T02:52:42.101Z,100263.59
2023-04-17T02:53:42.083Z,100269.98
2023-04-17T02:54:42.162Z,100269.27
2023-04-17T02:55:42.116Z,100272.62
2023-04-17T02:56:42.193Z,100274.26
2023-04-17T02:57:42.212Z,100274.92
2023-04-17T02:58:42.192Z,100275.36
2023-04-17T02:59:42.206Z,100274.8
2023-04-17T03:00:42.301Z,100278.11
2023-04-17T03:01:42.337Z,100279.31
2023-04-17T03:02:42.387Z,100281.27
2023-04-17T03:03:42.687Z,100279.24
2023-04-17T03:04:42.627Z,100278.77
2023-04-17T03:05:42.398Z,100277.6
2023-04-17T03:06:42.480Z,100279.85
2023-04-17T03:07:42.421Z,100280.27
2023-04-17T03:08:42.388Z,100282.96
2023-04-17T03:09:42.379Z,100287.06
2023-04-17T03:10:42.388Z,100283.87
2023-04-17T03:11:42.468Z,100282.25
2023-04-17T03:12:42.432Z,100285.18
2023-04-17T03:13:43.343Z,100283.8
2023-04-17T03:14:42.992Z,100282.41
2023-04-17T03:15:42.492Z,100286.48
2023-04-17T03:16:42.676Z,100289.23
2023-04-17T03:17:42.687Z,100286.52
2023-04-17T03:18:42.559Z,100284.84
2023-04-17T03:19:42.725Z,100288.55
2023-04-17T03:20:42.540Z,100283.42
2023-04-17T03:21:42.572Z,100286.45
2023-04-17T03:22:42.759Z,100290.96
2023-04-17T03:23:42.580Z,100288.67
2023-04-17T03:24:42.612Z,100287.1
2023-04-17T03:25:42.658Z,100286.08
2023-04-17T03:26:42.649Z,100287.3
2023-04-17T03:27:42.676Z,100289.89
2023-04-17T03:28:42.683Z,100292.8
2023-04-17T03:29:42.717Z,100288.17
2023-04-17T03:30:42.713Z,100291.34
2023-04-17T03:31:42.781Z,100292.04
2023-04-17T03:32:42.879Z,100286.48
2023-04-17T03:33:42.764Z,100289.24
2023-04-17T03:34:42.793Z,100293.88
2023-04-17T03:35:42.967Z,100288.85
2023-04-17T03:36:42.827Z,100289.23
2023-04-17T03:37:42.841Z,100290.27
2023-04-17T03:38:42.848Z,100291.7
2023-04-17T03:39:42.878Z,100292.89
2023-04-17T03:40:42.994Z,100293.31
2023-04-17T03:41:42.899Z,100291.44
2023-04-17T03:42:42.945Z,100291.94
2023-04-17T03:43:42.949Z,100293.22
2023-04-17T03:44:42.963Z,100296.75
2023-04-17T03:45:42.969Z,100292.73
2023-04-17T03:46:42.978Z,100294.45
2023-04-17T03:47:43.045Z,100298.47
2023-04-17T03:48:43.018Z,100294.69
2023-04-17T03:49:43.015Z,100298.3
2023-04-17T03:50:43.057Z,100298.94
2023-04-17T03:51:43.031Z,100301.48
2023-04-17T03:52:43.067Z,100299.94
2023-04-17T03:53:43.068Z,100297.08
2023-04-17T03:54:43.042Z,100300.52
2023-04-17T03:55:43.097Z,100302.86
2023-04-17T03:56:43.129Z,100299.27
2023-04-17T03:57:43.130Z,100305.48
2023-04-17T03:58:43.145Z,100302.09
2023-04-17T03:59:43.144Z,100303.66
2023-04-17T04:00:43.170Z,100300.17
2023-04-17T04:01:44.779Z,100303.53
2023-04-17T04:02:43.428Z,100304.84
2023-04-17T04:03:43.495Z,100302.28
2023-04-17T04:04:43.510Z,100306
2023-04-17T04:05:43.284Z,100302.66
2023-04-17T04:06:43.251Z,100307.59
2023-04-17T04:07:43.286Z,100304.45
2023-04-17T04:08:43.254Z,100307.87
2023-04-17T04:09:43.325Z,100302.5
2023-04-17T04:10:43.316Z,100305.96
2023-04-17T04:11:43.344Z,100302.97
2023-04-17T04:12:43.355Z,100310.02
2023-04-17T04:13:43.357Z,100308.74
2023-04-17T04:14:43.345Z,100309.73
2023-04-17T04:15:43.399Z,100307.19
2023-04-17T04:16:43.377Z,100311.11
2023-04-17T04:17:43.448Z,100311.2
2023-04-17T04:18:43.451Z,100310.91
2023-04-17T04:19:43.829Z,100314.2
2023-04-17T04:20:43.655Z,100309.05
2023-04-17T04:21:43.490Z,100313.02
2023-04-17T04:22:43.587Z,100312.36
2023-04-17T04:23:43.484Z,100314.59
2023-04-17T04:24:43.639Z,100315.32
2023-04-17T04:25:43.554Z,100315.06
2023-04-17T04:26:43.534Z,100313.33
2023-04-17T04:27:43.518Z,100316.3
2023-04-17T04:28:43.712Z,100312.76
2023-04-17T04:29:43.560Z,100313.08
2023-04-17T04:30:43.750Z,100316.38
2023-04-17T04:31:43.691Z,100317.12
2023-04-17T04:32:43.992Z,100322.38
2023-04-17T04:33:43.776Z,100321.81
2023-04-17T04:34:43.648Z,100318.74
2023-04-17T04:35:43.647Z,100323.12
2023-04-17T04:36:43.648Z,100322.45
2023-04-17T04:37:43.832Z,100321.36
2023-04-17T04:38:43.694Z,100321.35
2023-04-17T04:39:43.705Z,100322.97
2023-04-17T04:40:43.868Z,100329.42
2023-04-17T04:41:43.725Z,100326.52
2023-04-17T04:42:43.742Z,100327.34
2023-04-17T04:43:44.021Z,100329.57
2023-04-17T04:44:43.754Z,100326.67
2023-04-17T04:45:43.782Z,100330.47
2023-04-17T04:46:43.978Z,100328.94
2023-04-17T04:47:43.857Z,100331.42
2023-04-17T04:48:43.993Z,100332.95
2023-04-17T04:49:43.817Z,100330.7
2023-04-17T04:50:43.815Z,100330.98
2023-04-17T04:51:43.878Z,100331.31
2023-04-17T04:52:43.872Z,100332.47
2023-04-17T04:53:44.030Z,100333.24
2023-04-17T04:54:43.896Z,100335.84
2023-04-17T04:55:43.903Z,100334.34
2023-04-17T04:56:43.946Z,100332.09
2023-04-17T04:57:43.938Z,100333.48
2023-04-17T04:58:43.986Z,100341
2023-04-17T04:59:43.964Z,100338.22
2023-04-17T05:00:44.140Z,100332.97
2023-04-17T05:01:44.141Z,100337.55
2023-04-17T05:02:44.201Z,100336.52
2023-04-17T05:03:44.268Z,100336.02
2023-04-17T05:04:44.350Z,100339.86
2023-04-17T05:05:44.037Z,100338.36
2023-04-17T05:06:44.053Z,100342.52
2023-04-17T05:07:44.069Z,100345.81
2023-04-17T05:08:44.063Z,100345.93
2023-04-17T05:09:44.094Z,100349.52
2023-04-17T05:10:44.270Z,100349.09
2023-04-17T05:11:44.108Z,100345.97
2023-04-17T05:12:44.149Z,100348.7
2023-04-17T05:13:44.172Z,100345.96
2023-04-17T05:14:44.198Z,100351.88
2023-04-17T05:15:44.205Z,100349.16
2023-04-17T05:16:44.220Z,100351.36
2023-04-17T05:17:44.259Z,100348.91
2023-04-17T05:18:44.223Z,100352
2023-04-17T05:19:44.259Z,100351.91
2023-04-17T05:20:44.633Z,100354.62
2023-04-17T05:21:44.383Z,100350.27
2023-04-17T05:22:44.542Z,100351.16
2023-04-17T05:23:44.271Z,100354.23
2023-04-17T05:24:44.376Z,100347.65
2023-04-17T05:25:44.376Z,100349.84
2023-04-17T05:26:44.580Z,100346.38
2023-04-17T05:27:44.353Z,100347.42
2023-04-17T05:28:44.332Z,100349.08
2023-04-17T05:29:44.419Z,100345.78
2023-04-17T05:30:44.603Z,100344.87
2023-04-17T05:31:44.434Z,100344.89
2023-04-17T05:32:44.446Z,100346.05
2023-04-17T05:33:44.408Z,100342.26
2023-04-17T05:34:46.018Z,100344.41
2023-04-17T05:35:44.416Z,100341.02
2023-04-17T05:36:44.478Z,100341.21
2023-04-17T05:37:44.434Z,100344.01
2023-04-17T05:38:46.172Z,100343.84
2023-04-17T05:39:44.491Z,100341
2023-04-17T05:40:44.796Z,100342.18
2023-04-17T05:41:44.500Z,100344.31
2023-04-17T05:42:44.532Z,100348.45
2023-04-17T05:43:44.543Z,100342.31
2023-04-17T05:44:45.213Z,100346.92
2023-04-17T05:45:45.311Z,100346.34
2023-04-17T05:46:44.555Z,100349.45
2023-04-17T05:47:44.896Z,100350.91
2023-04-17T05:48:44.583Z,100352.91
2023-04-17T05:49:44.627Z,100353.38
2023-04-17T05:50:44.660Z,100353.41
2023-04-17T05:51:45.223Z,100348.59
2023-04-17T05:52:44.680Z,100346.45
2023-04-17T05:53:44.681Z,100353.42
2023-04-17T05:54:44.695Z,100353.73
2023-04-17T05:55:44.701Z,100353.72
2023-04-17T05:56:44.909Z,100354.08
2023-04-17T05:57:44.765Z,100356.56
2023-04-17T05:58:44.713Z,100356.73
2023-04-17T05:59:44.744Z,100356.59
2023-04-17T06:00:44.773Z,100355.01
2023-04-17T06:01:44.737Z,100357.98
2023-04-17T06:02:45.084Z,100356.23
2023-04-17T06:03:44.938Z,100360.73
2023-04-17T06:04:45.040Z,100357.39
2023-04-17T06:05:44.851Z,100360.2
2023-04-17T06:06:44.845Z,100360.56
2023-04-17T06:07:44.992Z,100362.09
2023-04-17T06:08:44.985Z,100363.98
2023-04-17T06:09:45.167Z,100369.92
2023-04-17T06:10:45.085Z,100370.28
2023-04-17T06:11:44.901Z,100369.35
2023-04-17T06:12:45.523Z,100372.55
2023-04-17T06:13:45.498Z,100374.45
2023-04-17T06:14:45.486Z,100375.52
2023-04-17T06:15:45.520Z,100375.17
2023-04-17T06:16:45.595Z,100378.34
2023-04-17T06:17:45.596Z,100379.05
2023-04-17T06:18:45.602Z,100379.13
2023-04-17T06:19:45.566Z,100381.41
2023-04-17T06:20:45.997Z,100381.06
2023-04-17T06:21:45.665Z,100382.77
2023-04-17T06:22:47.080Z,100385.76
2023-04-17T06:23:45.631Z,100382.45
2023-04-17T06:24:45.845Z,100384.9
2023-04-17T06:25:45.684Z,100385.3
2023-04-17T06:26:45.689Z,100387.97
2023-04-17T06:27:45.655Z,100387.97
2023-04-17T06:28:45.722Z,100383.38
2023-04-17T06:29:45.704Z,100390.12
2023-04-17T06:30:45.878Z,100389.78
2023-04-17T06:31:45.731Z,100388.91
2023-04-17T06:32:45.889Z,100386.99
2023-04-17T06:33:45.813Z,100392.34
2023-04-17T06:34:58.644Z,100397.8
2023-04-17T06:35:46.375Z,100391.55
2023-04-17T06:36:46.389Z,100393.31
2023-04-17T06:37:46.343Z,100389.7
2023-04-17T06:38:46.373Z,100391.06
2023-04-17T06:39:46.547Z,100391.45
2023-04-17T06:40:46.318Z,100393.03
2023-04-17T06:41:46.357Z,100398.55
2023-04-17T06:42:46.372Z,100395.84
2023-04-17T06:43:46.377Z,100398.16
2023-04-17T06:44:46.462Z,100396.61
2023-04-17T06:45:46.963Z,100395.31
2023-04-17T06:46:46.716Z,100401.48
2023-04-17T06:47:46.612Z,100402.39
2023-04-17T06:48:46.517Z,100405.22
2023-04-17T06:49:46.592Z,100409.1
2023-04-17T06:50:46.661Z,100410.66
2023-04-17T06:51:46.479Z,100412.07
2023-04-17T06:52:46.527Z,100413.88
2023-04-17T06:53:47.138Z,100410.98
2023-04-17T06:54:46.694Z,100414.25
2023-04-17T06:55:46.844Z,100417.31
2023-04-17T06:56:46.722Z,100419.16
2023-04-17T06:57:46.590Z,100419.36
2023-04-17T06:58:46.983Z,100422.16
2023-04-17T06:59:46.622Z,100423.38
2023-04-17T07:00:46.753Z,100423.22
2023-04-17T07:01:46.765Z,100423.25
2023-04-17T07:02:46.733Z,100424.7
2023-04-17T07:03:47.036Z,100426.15
2023-04-17T07:04:46.921Z,100426.37
2023-04-17T07:05:46.703Z,100426.22
2023-04-17T07:06:46.702Z,100423.13
2023-04-17T07:07:46.676Z,100425.84
2023-04-17T07:08:46.754Z,100430.13
2023-04-17T07:09:46.926Z,100436
2023-04-17T07:10:46.722Z,100435.31
2023-04-17T07:11:46.756Z,100433.98
2023-04-17T07:12:46.762Z,100438.91
2023-04-17T07:13:46.764Z,100438.18
2023-04-17T07:14:46.849Z,100442.67
2023-04-17T07:15:55.653Z,100440.52
2023-04-17T07:16:47.603Z,100443.82
2023-04-17T07:17:47.515Z,100442.2
2023-04-17T07:18:47.416Z,100449.73
2023-04-17T07:19:47.532Z,100448.21
2023-04-17T07:20:52.510Z,100448.33
2023-04-17T07:21:49.404Z,100450.45
2023-04-17T07:22:49.650Z,100450.73
2023-04-17T07:23:49.288Z,100451.94
2023-04-17T07:24:49.363Z,100447.94
2023-04-17T07:25:49.440Z,100453.94
2023-04-17T07:26:49.258Z,100450.77
2023-04-17T07:27:49.286Z,100456.03
2023-04-17T07:28:49.345Z,100455.52
2023-04-17T07:29:49.308Z,100455.23
2023-04-17T07:30:49.349Z,100453.03
2023-04-17T07:31:49.579Z,100457.05
2023-04-17T07:32:49.448Z,100455.5
2023-04-17T07:33:49.429Z,100458.83
2023-04-17T07:34:49.633Z,100458.14
2023-04-17T07:35:49.453Z,100459.54
2023-04-17T07:36:49.565Z,100459.95
2023-04-17T07:37:49.550Z,100459.86
2023-04-17T07:38:49.460Z,100459.98
2023-04-17T07:39:49.768Z,100455.54
2023-04-17T07:40:49.568Z,100456.77
2023-04-17T07:41:49.683Z,100458.66
2023-04-17T07:42:49.532Z,100459.22
2023-04-17T07:43:49.492Z,100460.07
2023-04-17T07:44:49.537Z,100464.54
2023-04-17T07:45:49.572Z,100461.58
2023-04-17T07:46:49.787Z,100460.89
2023-04-17T07:47:52.562Z,100460.27
2023-04-17T07:48:49.556Z,100463.37
2023-04-17T07:49:49.541Z,100464.55
2023-04-17T07:50:50.343Z,100466.52
2023-04-17T07:51:49.576Z,100466.58
2023-04-17T07:52:49.723Z,100464.91
2023-04-17T07:53:49.785Z,100465.66
2023-04-17T07:54:49.666Z,100467.73
2023-04-17T07:55:49.665Z,100467.8
2023-04-17T07:56:49.862Z,100468.64
2023-04-17T07:57:49.631Z,100468.28
2023-04-17T07:58:49.706Z,100468.14
2023-04-17T07:59:49.977Z,100468.99
2023-04-17T08:00:50.140Z,100474.3
2023-04-17T08:01:53.409Z,100473.72
2023-04-17T08:02:50.399Z,100471.94
2023-04-17T08:03:50.312Z,100471.75
2023-04-17T08:04:50.546Z,100471.56
2023-04-17T08:05:50.473Z,100472.22
2023-04-17T08:06:50.248Z,100471.56
2023-04-17T08:07:50.319Z,100474.06
2023-04-17T08:08:50.286Z,100473.7
2023-04-17T08:09:50.250Z,100476.7
2023-04-17T08:10:50.521Z,100477.72
2023-04-17T08:11:56.883Z,100477.72
2023-04-17T08:12:55.135Z,100478.45
2023-04-17T08:13:55.316Z,100481.08
2023-04-17T08:14:55.070Z,100480.48
2023-04-17T08:15:54.863Z,100486.64
2023-04-17T08:16:55.006Z,100486.06
2023-04-17T08:17:54.941Z,100482.93
2023-04-17T08:18:54.941Z,100488.02
2023-04-17T08:19:54.909Z,100486.86
2023-04-17T08:20:54.877Z,100487.92
2023-04-17T08:22:00.820Z,100492.94
2023-04-17T08:22:57.839Z,100493.54
2023-04-17T08:23:57.649Z,100491.8
2023-04-17T08:24:57.649Z,100486.5
2023-04-17T08:25:57.618Z,100491.27
2023-04-17T08:26:58.007Z,100491.8
2023-04-17T08:27:57.809Z,100495.46
2023-04-17T08:28:57.826Z,100496.91
2023-04-17T08:29:57.725Z,100498.62
2023-04-17T08:30:57.779Z,100497.7
2023-04-17T08:32:10.899Z,100499.53
2023-04-17T08:33:00.685Z,100503.69
2023-04-17T08:34:13.000Z,100505.44
2023-04-17T08:35:01.374Z,100504.86
2023-04-17T08:36:03.624Z,100501.79
2023-04-17T08:37:01.509Z,100505.33
2023-04-17T08:38:01.390Z,100510.23
2023-04-17T08:39:01.402Z,100510.41
2023-04-17T08:40:01.806Z,100509.8
2023-04-17T08:41:07.620Z,100511.2
2023-04-17T08:42:11.865Z,100510.73
2023-04-17T08:43:06.865Z,100511.8
2023-04-17T08:44:06.575Z,100511.75
2023-04-17T08:45:08.459Z,100509.14
2023-04-17T08:46:06.537Z,100511.03
2023-04-17T08:47:06.527Z,100510.81
2023-04-17T08:48:06.564Z,100512.12
2023-04-17T08:49:06.606Z,100511.22
2023-04-17T08:50:16.591Z,100511.83
2023-04-17T08:51:08.404Z,100512.72
2023-04-17T08:52:08.259Z,100510.82
2023-04-17T08:53:08.297Z,100513.76
2023-04-17T08:54:08.984Z,100516.03
2023-04-17T08:55:12.935Z,100519.45
2023-04-17T08:56:09.562Z,100515.83
2023-04-17T08:57:09.616Z,100517.77
2023-04-17T08:58:09.870Z,100518.42
2023-04-17T08:59:09.887Z,100512.92
2023-04-17T09:00:10.253Z,100515.81
2023-04-17T09:01:10.791Z,100514.88
2023-04-17T09:02:09.791Z,100518.06
2023-04-17T09:03:10.620Z,100516.48
2023-04-17T09:04:10.087Z,100517.66
2023-04-17T09:05:18.644Z,100517.16
2023-04-17T09:06:10.741Z,100517.95
2023-04-17T09:07:11.179Z,100516.84
2023-04-17T09:08:17.150Z,100518.02
2023-04-17T09:09:13.938Z,100515.47
2023-04-17T09:10:13.868Z,100513.02
2023-04-17T09:11:17.040Z,100519.55
2023-04-17T09:12:14.077Z,100522
2023-04-17T09:13:15.105Z,100517.53
2023-04-17T09:15:16.672Z,100519.78
2023-04-17T09:16:16.237Z,100518.23
2023-04-17T09:17:16.882Z,100523.22
2023-04-17T09:18:25.673Z,100522.5
2023-04-17T09:19:17.444Z,100525.73
2023-04-17T09:20:17.464Z,100517.14
2023-04-17T09:21:18.140Z,100528.42
2023-04-17T09:22:20.816Z,100531.7
2023-04-17T09:23:17.943Z,100529.27
2023-04-17T09:24:31.874Z,100535.36
2023-04-17T09:25:19.636Z,100530.73
2023-04-17T09:26:19.816Z,100529.61
2023-04-17T09:27:25.859Z,100528.92
2023-04-17T09:28:22.557Z,100533.82
2023-04-17T09:29:22.616Z,100538.42
2023-04-17T09:30:24.663Z,100543.28
2023-04-17T09:31:26.522Z,100544.62
2023-04-17T09:32:23.464Z,100548.91
2023-04-17T09:33:23.433Z,100542.33
2023-04-17T09:34:23.416Z,100541.75
2023-04-17T09:35:24.302Z,100547.23
2023-04-17T09:36:23.447Z,100544.09
2023-04-17T09:37:23.973Z,100544.54
2023-04-17T09:39:25.054Z,100546.61
2023-04-17T09:40:25.529Z,100549.33
2023-04-17T09:41:34.291Z,100551.95
2023-04-17T09:42:26.388Z,100554.23
2023-04-17T09:43:40.071Z,100558.44
2023-04-17T09:44:27.195Z,100558.63
2023-04-17T09:45:27.647Z,100557.37
2023-04-17T09:46:33.868Z,100555.5
2023-04-17T09:48:30.680Z,100565.02
2023-04-17T09:49:36.256Z,100562.45
2023-04-17T09:50:34.392Z,100562.75
2023-04-17T09:51:36.140Z,100568.82
2023-04-17T09:52:33.070Z,100565.83
2023-04-17T09:53:33.104Z,100565.91
2023-04-17T09:54:33.630Z,100563.27
2023-04-17T09:55:33.478Z,100568.08
2023-04-17T09:56:33.534Z,100567.7
2023-04-17T09:57:33.269Z,100567.33
2023-04-17T09:58:33.214Z,100571.7
2023-04-17T09:59:33.864Z,100573.11
2023-04-17T10:00:33.162Z,100572.86
2023-04-17T10:01:34.291Z,100573.02
2023-04-17T10:02:33.488Z,100572.69
2023-04-17T10:03:35.912Z,100573.61
2023-04-17T10:04:34.867Z,100575.33
2023-04-17T10:05:35.020Z,100579.81
2023-04-17T10:06:35.095Z,100575.46
2023-04-17T10:07:34.447Z,100578.68
2023-04-17T10:08:34.191Z,100581.66
2023-04-17T10:09:34.415Z,100582.55
2023-04-17T10:10:34.614Z,100582.31
2023-04-17T10:11:35.977Z,100582.39
2023-04-17T10:12:35.101Z,100581.27
2023-04-17T10:13:36.837Z,100580.39
2023-04-17T10:14:36.026Z,100580.51
2023-04-17T10:15:35.125Z,100586.34
2023-04-17T10:16:35.270Z,100583.14
2023-04-17T10:17:34.505Z,100583.39
2023-04-17T10:18:34.577Z,100585.7
2023-04-17T10:19:36.230Z,100584.63
2023-04-17T10:20:34.837Z,100585.88
2023-04-17T10:21:34.404Z,100589.83
2023-04-17T10:22:34.422Z,100589.05
2023-04-17T10:23:34.803Z,100591.31
2023-04-17T10:24:34.457Z,100591.51
2023-04-17T10:25:34.446Z,100591.78
2023-04-17T10:26:34.464Z,100590.17
2023-04-17T10:27:44.052Z,100598.08
2023-04-17T10:28:48.139Z,100594.05
2023-04-17T10:29:51.976Z,100591.56
2023-04-17T10:30:49.418Z,100593.14
2023-04-17T10:33:54.871Z,100592.17
2023-04-17T10:35:55.866Z,100599.35
2023-04-17T10:36:55.872Z,100595.98
2023-04-17T10:41:07.246Z,100599.44
2023-04-17T10:42:05.775Z,100597.17
2023-04-17T10:44:06.204Z,100601.61
2023-04-17T10:46:09.897Z,100601.12
2023-04-17T10:47:09.309Z,100601.7
2023-04-17T10:49:10.558Z,100601.51
2023-04-17T10:50:10.283Z,100603.37
2023-04-17T10:54:18.031Z,100606
2023-04-17T10:55:21.217Z,100606.86
2023-04-17T10:58:21.653Z,100608.66
2023-04-17T10:59:23.102Z,100606.23
2023-04-17T11:01:29.603Z,100609.92
2023-04-17T11:02:35.603Z,100611.98
2023-04-17T11:03:27.617Z,100612.12
2023-04-17T11:04:28.778Z,100616.05
2023-04-17T11:05:27.628Z,100609.04
2023-04-17T11:06:28.077Z,100610.02
2023-04-17T11:07:27.936Z,100609.73
2023-04-17T11:08:27.439Z,100607.56
2023-04-17T11:09:28.441Z,100612.3
2023-04-17T11:10:27.565Z,100612.19
2023-04-17T11:11:40.378Z,100616.5
2023-04-17T11:12:31.306Z,100613.66
2023-04-17T11:13:32.772Z,100612.31
2023-04-17T11:14:30.991Z,100613.82
2023-04-17T11:15:30.988Z,100616.49
2023-04-17T11:16:30.088Z,100618.61
2023-04-17T11:17:30.121Z,100614.45
2023-04-17T11:18:31.122Z,100621.91
2023-04-17T11:19:32.069Z,100617.2
2023-04-17T11:20:31.395Z,100620.56
2023-04-17T11:21:30.139Z,100621.72
2023-04-17T11:22:32.766Z,100626.66
2023-04-17T11:23:30.454Z,100622.02
2023-04-17T11:24:31.256Z,100625.53
2023-04-17T11:25:30.866Z,100624.92
2023-04-17T11:26:30.269Z,100621.73
2023-04-17T11:27:30.252Z,100625
2023-04-17T11:28:30.272Z,100622.33
2023-04-17T11:29:30.335Z,100624.25
2023-04-17T11:30:31.609Z,100625.31
2023-04-17T11:31:30.324Z,100627.3
2023-04-17T11:32:35.416Z,100624
2023-04-17T11:33:36.002Z,100623.95
2023-04-17T11:34:33.698Z,100624.29
2023-04-17T11:35:33.631Z,100622.8
2023-04-17T11:36:32.778Z,100627.19
2023-04-17T11:37:32.750Z,100623.67
2023-04-17T11:38:33.292Z,100625.33
2023-04-17T11:39:33.566Z,100626.25
2023-04-17T11:40:32.997Z,100625.23
2023-04-17T11:41:39.187Z,100630.08
2023-04-17T11:42:35.898Z,100629.58
2023-04-17T11:43:35.973Z,100631.03
2023-04-17T11:44:35.929Z,100627.62
2023-04-17T11:45:37.068Z,100629.84
2023-04-17T11:46:36.088Z,100625.74
2023-04-17T11:47:36.062Z,100628.28
2023-04-17T11:48:35.952Z,100625.7
2023-04-17T11:49:39.040Z,100629.81